createdAt,value
2019-03-17T15:49:06.849Z,18.53
2019-03-17T15:54:08.880Z,18.19
2019-03-17T15:59:10.776Z,17.90
2019-03-17T16:04:12.447Z,17.72
2019-03-17T16:09:14.018Z,17.65
2019-03-17T16:14:15.984Z,17.54
2019-03-17T16:19:19.513Z,17.42
2019-03-17T16:24:23.056Z,17.29
2019-03-17T16:29:26.194Z,17.07
2019-03-17T16:34:27.742Z,16.78
2019-03-17T16:39:30.500Z,16.60
2019-03-17T16:44:34.321Z,16.45
2019-03-17T16:49:36.202Z,16.32
2019-03-17T16:54:39.478Z,16.27
2019-03-17T16:59:44.865Z,16.12
2019-03-17T17:04:46.479Z,16.06
2019-03-17T17:09:48.913Z,15.86
2019-03-17T17:14:53.995Z,15.66
2019-03-17T17:19:57.003Z,15.64
2019-03-17T17:24:58.932Z,15.62
2019-03-17T17:30:00.814Z,15.52
2019-03-17T17:35:06.282Z,15.47
2019-03-17T17:40:21.336Z,15.38
2019-03-17T17:45:24.412Z,15.30
2019-03-17T17:50:28.736Z,15.10
2019-03-17T17:55:30.428Z,15.02
2019-03-17T18:00:36.550Z,14.94
2019-03-17T18:05:38.441Z,14.84
2019-03-17T18:10:40.049Z,14.69
2019-03-17T18:15:41.612Z,14.75
2019-03-17T18:20:43.206Z,14.69
2019-03-17T18:25:44.746Z,14.65
2019-03-17T18:30:46.347Z,14.60
2019-03-17T18:35:47.936Z,14.62
2019-03-17T18:40:49.482Z,14.43
2019-03-17T18:45:51.083Z,14.29
2019-03-17T18:50:54.207Z,14.40
2019-03-17T18:55:57.835Z,14.46
2019-03-17T19:01:01.506Z,14.71
2019-03-17T19:06:04.099Z,14.74
2019-03-17T19:11:07.761Z,14.82
2019-03-17T19:16:11.760Z,14.80
2019-03-17T19:21:15.542Z,14.75
2019-03-17T19:26:17.114Z,14.73
2019-03-17T19:31:21.765Z,14.78
2019-03-17T19:36:23.424Z,14.90
2019-03-17T19:41:27.756Z,14.90
2019-03-17T19:46:29.696Z,14.82
2019-03-17T19:51:32.538Z,14.84
2019-03-17T19:56:37.220Z,14.85
2019-03-17T20:01:40.728Z,14.79
2019-03-17T20:06:43.792Z,14.79
2019-03-17T20:11:47.261Z,14.75
2019-03-17T20:16:50.019Z,14.73
2019-03-17T20:21:52.528Z,14.70
2019-03-17T20:26:56.996Z,14.72
2019-03-17T20:31:59.813Z,14.65
2019-03-17T20:37:03.606Z,14.59
2019-03-17T20:42:05.277Z,14.62
2019-03-17T20:47:08.786Z,14.56
2019-03-17T20:52:12.114Z,14.44
2019-03-17T20:57:13.835Z,14.33
2019-03-17T21:02:17.294Z,14.23
2019-03-17T21:07:21.479Z,14.06
2019-03-17T21:12:24.227Z,13.98
2019-03-17T21:17:27.978Z,13.85
2019-03-17T21:22:29.553Z,13.76
2019-03-17T21:27:32.410Z,13.82
2019-03-17T21:32:35.611Z,13.82
2019-03-17T21:37:38.704Z,13.83
2019-03-17T21:42:40.650Z,13.84
2019-03-17T21:47:42.531Z,13.74
2019-03-17T21:52:47.101Z,13.74
2019-03-17T21:57:50.701Z,13.74
2019-03-17T22:02:55.139Z,13.71
2019-03-17T22:07:57.069Z,13.64
2019-03-17T22:12:58.632Z,13.58
2019-03-17T22:18:00.994Z,13.56
2019-03-17T22:23:03.720Z,13.50
2019-03-17T22:28:08.688Z,13.44
2019-03-17T22:33:08.877Z,13.39
2019-03-17T22:38:12.060Z,13.36
2019-03-17T22:43:13.715Z,13.38
2019-03-17T22:48:15.323Z,13.32
2019-03-17T22:53:17.057Z,13.23
2019-03-17T22:58:18.755Z,13.19
2019-03-17T23:03:20.352Z,12.78
2019-03-17T23:08:21.893Z,12.26
2019-03-17T23:13:23.619Z,11.76
2019-03-17T23:18:25.209Z,11.31
2019-03-17T23:23:26.750Z,11.03
2019-03-17T23:28:28.306Z,10.79
2019-03-17T23:33:29.859Z,10.49
2019-03-17T23:38:31.489Z,10.19
2019-03-17T23:43:33.101Z,9.86
2019-03-17T23:48:34.657Z,9.60
2019-03-17T23:53:36.279Z,9.41
2019-03-17T23:58:37.931Z,9.28
